sensor_id;sensor_type;location;lat;lon;timestamp;pressure;altitude;pressure_sealevel;temperature
69704;BMP280;56967;43.538;-5.646;2023-01-23T00:01:08;102119.28;;;7.94
69704;BMP280;56967;43.538;-5.646;2023-01-23T00:03:34;102043.88;;;7.55
69704;BMP280;56967;43.538;-5.646;2023-01-23T00:06:06;101985.50;;;7.55
69704;BMP280;56967;43.538;-5.646;2023-01-23T00:08:32;101953.72;;;7.08
69704;BMP280;56967;43.538;-5.646;2023-01-23T00:10:58;101979.91;;;6.11
69704;BMP280;56967;43.538;-5.646;2023-01-23T00:13:24;102358.91;;;6.25
69704;BMP280;56967;43.538;-5.646;2023-01-23T00:15:50;102604.78;;;5.07
69704;BMP280;56967;43.538;-5.646;2023-01-23T00:18:16;102865.81;;;5.12
69704;BMP280;56967;43.538;-5.646;2023-01-23T00:20:42;103205.00;;;6.34
69704;BMP280;56967;43.538;-5.646;2023-01-23T00:23:08;103242.91;;;6.62
69704;BMP280;56967;43.538;-5.646;2023-01-23T00:25:35;103016.47;;;5.31
69704;BMP280;56967;43.538;-5.646;2023-01-23T00:28:01;103101.44;;;5.33
69704;BMP280;56967;43.538;-5.646;2023-01-23T00:30:27;103190.13;;;5.44
69704;BMP280;56967;43.538;-5.646;2023-01-23T00:32:52;103269.75;;;5.01
69704;BMP280;56967;43.538;-5.646;2023-01-23T00:35:18;103252.66;;;5.57
69704;BMP280;56967;43.538;-5.646;2023-01-23T00:37:43;103418.94;;;6.26
69704;BMP280;56967;43.538;-5.646;2023-01-23T00:40:09;103311.25;;;5.04
69704;BMP280;56967;43.538;-5.646;2023-01-23T00:42:35;103372.53;;;5.71
69704;BMP280;56967;43.538;-5.646;2023-01-23T00:45:01;103364.94;;;4.94
69704;BMP280;56967;43.538;-5.646;2023-01-23T00:47:26;103461.72;;;4.89
69704;BMP280;56967;43.538;-5.646;2023-01-23T00:49:52;103616.28;;;5.42
69704;BMP280;56967;43.538;-5.646;2023-01-23T00:52:23;103606.44;;;5.07
69704;BMP280;56967;43.538;-5.646;2023-01-23T00:54:49;103701.09;;;6.50
69704;BMP280;56967;43.538;-5.646;2023-01-23T00:57:14;103435.16;;;6.99
69704;BMP280;56967;43.538;-5.646;2023-01-23T00:59:40;103100.75;;;6.53
69704;BMP280;56967;43.538;-5.646;2023-01-23T01:02:05;102965.13;;;6.50
69704;BMP280;56967;43.538;-5.646;2023-01-23T01:04:31;102867.53;;;6.51
69704;BMP280;56967;43.538;-5.646;2023-01-23T01:06:56;102762.22;;;6.30
69704;BMP280;56967;43.538;-5.646;2023-01-23T01:09:22;102770.81;;;6.42
69704;BMP280;56967;43.538;-5.646;2023-01-23T01:11:49;102747.06;;;6.45
69704;BMP280;56967;43.538;-5.646;2023-01-23T01:14:15;102699.69;;;6.29
69704;BMP280;56967;43.538;-5.646;2023-01-23T01:16:41;102647.16;;;5.92
69704;BMP280;56967;43.538;-5.646;2023-01-23T01:19:11;102788.16;;;6.01
69704;BMP280;56967;43.538;-5.646;2023-01-23T01:21:36;102876.06;;;6.01
69704;BMP280;56967;43.538;-5.646;2023-01-23T01:24:03;102912.06;;;5.97
69704;BMP280;56967;43.538;-5.646;2023-01-23T01:26:29;102937.78;;;6.13
69704;BMP280;56967;43.538;-5.646;2023-01-23T01:28:54;102926.13;;;6.06
69704;BMP280;56967;43.538;-5.646;2023-01-23T01:31:20;102910.00;;;5.69
69704;BMP280;56967;43.538;-5.646;2023-01-23T01:33:46;102975.06;;;5.59
69704;BMP280;56967;43.538;-5.646;2023-01-23T01:36:14;103054.78;;;5.75
69704;BMP280;56967;43.538;-5.646;2023-01-23T01:38:40;103084.56;;;5.83
69704;BMP280;56967;43.538;-5.646;2023-01-23T01:41:06;103089.22;;;4.51
69704;BMP280;56967;43.538;-5.646;2023-01-23T01:43:32;103265.09;;;5.30
69704;BMP280;56967;43.538;-5.646;2023-01-23T01:46:18;103481.16;;;4.71
69704;BMP280;56967;43.538;-5.646;2023-01-23T01:49:13;103652.50;;;5.34
69704;BMP280;56967;43.538;-5.646;2023-01-23T01:51:47;103551.25;;;4.74
69704;BMP280;56967;43.538;-5.646;2023-01-23T01:57:12;103696.53;;;5.11
69704;BMP280;56967;43.538;-5.646;2023-01-23T02:00:15;103610.53;;;4.15
69704;BMP280;56967;43.538;-5.646;2023-01-23T02:02:37;103820.00;;;4.96
69704;BMP280;56967;43.538;-5.646;2023-01-23T02:05:08;103863.59;;;4.94
69704;BMP280;56967;43.538;-5.646;2023-01-23T02:07:45;103771.38;;;5.24
69704;BMP280;56967;43.538;-5.646;2023-01-23T02:10:12;103662.63;;;4.99
69704;BMP280;56967;43.538;-5.646;2023-01-23T02:12:38;103653.50;;;5.18
69704;BMP280;56967;43.538;-5.646;2023-01-23T02:15:06;103629.97;;;5.33
69704;BMP280;56967;43.538;-5.646;2023-01-23T02:17:33;103604.13;;;5.55
69704;BMP280;56967;43.538;-5.646;2023-01-23T02:23:26;103396.00;;;5.09
69704;BMP280;56967;43.538;-5.646;2023-01-23T02:25:59;103440.94;;;5.26
69704;BMP280;56967;43.538;-5.646;2023-01-23T02:31:02;103487.34;;;5.46
69704;BMP280;56967;43.538;-5.646;2023-01-23T02:35:53;103385.16;;;5.64
69704;BMP280;56967;43.538;-5.646;2023-01-23T02:38:23;103334.47;;;5.80
69704;BMP280;56967;43.538;-5.646;2023-01-23T02:40:50;103274.72;;;5.88
69704;BMP280;56967;43.538;-5.646;2023-01-23T02:43:21;103138.88;;;5.67
69704;BMP280;56967;43.538;-5.646;2023-01-23T02:45:48;103094.63;;;5.65
69704;BMP280;56967;43.538;-5.646;2023-01-23T02:48:13;103074.91;;;5.72
69704;BMP280;56967;43.538;-5.646;2023-01-23T02:50:39;103067.81;;;5.75
69704;BMP280;56967;43.538;-5.646;2023-01-23T02:53:05;103057.78;;;5.81
69704;BMP280;56967;43.538;-5.646;2023-01-23T02:55:30;103047.59;;;4.26
69704;BMP280;56967;43.538;-5.646;2023-01-23T02:57:59;103312.22;;;4.78
69704;BMP280;56967;43.538;-5.646;2023-01-23T03:00:44;103486.25;;;4.19
69704;BMP280;56967;43.538;-5.646;2023-01-23T03:03:10;103667.91;;;4.71
69704;BMP280;56967;43.538;-5.646;2023-01-23T03:05:35;103708.50;;;5.28
69704;BMP280;56967;43.538;-5.646;2023-01-23T03:08:01;103597.22;;;4.48
69704;BMP280;56967;43.538;-5.646;2023-01-23T03:10:27;103670.31;;;4.45
69704;BMP280;56967;43.538;-5.646;2023-01-23T03:12:55;103682.50;;;5.53
69704;BMP280;56967;43.538;-5.646;2023-01-23T03:15:22;103503.94;;;5.57
69704;BMP280;56967;43.538;-5.646;2023-01-23T03:17:48;103370.88;;;5.57
69704;BMP280;56967;43.538;-5.646;2023-01-23T03:20:17;103299.63;;;5.57
69704;BMP280;56967;43.538;-5.646;2023-01-23T03:22:43;103200.56;;;4.48
69704;BMP280;56967;43.538;-5.646;2023-01-23T03:25:11;103358.88;;;5.18
69704;BMP280;56967;43.538;-5.646;2023-01-23T03:27:36;103295.13;;;4.61
69704;BMP280;56967;43.538;-5.646;2023-01-23T03:30:03;103340.09;;;4.38
69704;BMP280;56967;43.538;-5.646;2023-01-23T03:32:39;103574.72;;;5.01
69704;BMP280;56967;43.538;-5.646;2023-01-23T03:35:05;103546.63;;;5.31
69704;BMP280;56967;43.538;-5.646;2023-01-23T03:37:31;103532.84;;;5.16
69704;BMP280;56967;43.538;-5.646;2023-01-23T03:39:57;103506.13;;;4.74
69704;BMP280;56967;43.538;-5.646;2023-01-23T03:42:41;103463.59;;;5.38
69704;BMP280;56967;43.538;-5.646;2023-01-23T03:45:07;103356.75;;;5.36
69704;BMP280;56967;43.538;-5.646;2023-01-23T03:47:33;103274.88;;;5.39
69704;BMP280;56967;43.538;-5.646;2023-01-23T03:49:58;103199.84;;;5.18
69704;BMP280;56967;43.538;-5.646;2023-01-23T03:52:24;103170.31;;;5.07
69704;BMP280;56967;43.538;-5.646;2023-01-23T03:54:50;103196.63;;;5.15
69704;BMP280;56967;43.538;-5.646;2023-01-23T03:57:17;103194.19;;;4.64
69704;BMP280;56967;43.538;-5.646;2023-01-23T03:59:43;103266.91;;;4.80
69704;BMP280;56967;43.538;-5.646;2023-01-23T04:02:08;103292.94;;;4.80
69704;BMP280;56967;43.538;-5.646;2023-01-23T04:04:34;103321.91;;;4.88
69704;BMP280;56967;43.538;-5.646;2023-01-23T04:07:01;103335.53;;;4.92
69704;BMP280;56967;43.538;-5.646;2023-01-23T04:09:26;103340.53;;;5.07
69704;BMP280;56967;43.538;-5.646;2023-01-23T04:11:56;103310.75;;;4.99
69704;BMP280;56967;43.538;-5.646;2023-01-23T04:14:23;103300.72;;;4.93
69704;BMP280;56967;43.538;-5.646;2023-01-23T04:16:48;103313.25;;;4.88
69704;BMP280;56967;43.538;-5.646;2023-01-23T04:19:14;103303.84;;;4.72
69704;BMP280;56967;43.538;-5.646;2023-01-23T04:21:44;103320.66;;;4.56
69704;BMP280;56967;43.538;-5.646;2023-01-23T04:24:10;103369.53;;;4.65
69704;BMP280;56967;43.538;-5.646;2023-01-23T04:26:35;103383.06;;;4.57
69704;BMP280;56967;43.538;-5.646;2023-01-23T04:29:03;103391.13;;;4.40
69704;BMP280;56967;43.538;-5.646;2023-01-23T04:31:29;103435.84;;;4.47
69704;BMP280;56967;43.538;-5.646;2023-01-23T04:33:55;103454.00;;;4.48
69704;BMP280;56967;43.538;-5.646;2023-01-23T04:36:20;103487.22;;;4.31
69704;BMP280;56967;43.538;-5.646;2023-01-23T04:38:46;103530.13;;;4.25
69704;BMP280;56967;43.538;-5.646;2023-01-23T04:41:18;103590.72;;;4.41
69704;BMP280;56967;43.538;-5.646;2023-01-23T04:43:44;103607.44;;;4.51
69704;BMP280;56967;43.538;-5.646;2023-01-23T04:46:09;103595.81;;;4.57
69704;BMP280;56967;43.538;-5.646;2023-01-23T04:48:35;103582.75;;;4.71
69704;BMP280;56967;43.538;-5.646;2023-01-23T04:51:01;103551.72;;;4.81
69704;BMP280;56967;43.538;-5.646;2023-01-23T04:53:26;103478.72;;;4.68
69704;BMP280;56967;43.538;-5.646;2023-01-23T04:55:52;103470.13;;;4.80
69704;BMP280;56967;43.538;-5.646;2023-01-23T04:58:18;103386.28;;;4.61
69704;BMP280;56967;43.538;-5.646;2023-01-23T05:00:45;103396.22;;;4.68
69704;BMP280;56967;43.538;-5.646;2023-01-23T05:03:10;103376.41;;;4.66
69704;BMP280;56967;43.538;-5.646;2023-01-23T05:05:36;103373.38;;;4.72
69704;BMP280;56967;43.538;-5.646;2023-01-23T05:08:02;103365.69;;;4.71
69704;BMP280;56967;43.538;-5.646;2023-01-23T05:10:27;103382.44;;;4.54
69704;BMP280;56967;43.538;-5.646;2023-01-23T05:12:53;103390.28;;;4.66
69704;BMP280;56967;43.538;-5.646;2023-01-23T05:15:18;103352.22;;;4.64
69704;BMP280;56967;43.538;-5.646;2023-01-23T05:17:46;103335.28;;;4.71
69704;BMP280;56967;43.538;-5.646;2023-01-23T05:20:12;103330.44;;;4.78
69704;BMP280;56967;43.538;-5.646;2023-01-23T05:22:38;103312.31;;;4.76
69704;BMP280;56967;43.538;-5.646;2023-01-23T05:25:04;103265.78;;;4.72
69704;BMP280;56967;43.538;-5.646;2023-01-23T05:27:29;103265.78;;;4.95
69704;BMP280;56967;43.538;-5.646;2023-01-23T05:29:55;103215.78;;;4.90
69704;BMP280;56967;43.538;-5.646;2023-01-23T05:32:21;103175.91;;;4.90
69704;BMP280;56967;43.538;-5.646;2023-01-23T05:34:46;103167.09;;;4.91
69704;BMP280;56967;43.538;-5.646;2023-01-23T05:37:12;103167.72;;;4.94
69704;BMP280;56967;43.538;-5.646;2023-01-23T05:39:37;103098.69;;;4.52
69704;BMP280;56967;43.538;-5.646;2023-01-23T05:42:03;103144.09;;;4.36
69704;BMP280;56967;43.538;-5.646;2023-01-23T05:44:29;103250.03;;;4.48
69704;BMP280;56967;43.538;-5.646;2023-01-23T05:46:54;103275.03;;;4.50
69704;BMP280;56967;43.538;-5.646;2023-01-23T05:49:20;103298.28;;;4.53
69704;BMP280;56967;43.538;-5.646;2023-01-23T05:51:45;103300.66;;;4.56
69704;BMP280;56967;43.538;-5.646;2023-01-23T05:54:11;103307.88;;;4.53
69704;BMP280;56967;43.538;-5.646;2023-01-23T05:56:36;103315.97;;;4.48
69704;BMP280;56967;43.538;-5.646;2023-01-23T05:59:02;103342.09;;;4.59
69704;BMP280;56967;43.538;-5.646;2023-01-23T06:01:29;103348.44;;;4.55
69704;BMP280;56967;43.538;-5.646;2023-01-23T06:03:55;103316.38;;;4.42
69704;BMP280;56967;43.538;-5.646;2023-01-23T06:06:20;103337.41;;;4.39
69704;BMP280;56967;43.538;-5.646;2023-01-23T06:08:46;103361.09;;;4.49
69704;BMP280;56967;43.538;-5.646;2023-01-23T06:11:11;103340.56;;;4.44
69704;BMP280;56967;43.538;-5.646;2023-01-23T06:13:37;103355.03;;;4.48
69704;BMP280;56967;43.538;-5.646;2023-01-23T06:16:03;103400.25;;;4.72
69704;BMP280;56967;43.538;-5.646;2023-01-23T06:18:28;103374.00;;;4.76
69704;BMP280;56967;43.538;-5.646;2023-01-23T06:20:59;103317.88;;;4.72
69704;BMP280;56967;43.538;-5.646;2023-01-23T06:23:24;103284.16;;;4.81
69704;BMP280;56967;43.538;-5.646;2023-01-23T06:25:50;103271.81;;;5.08
69704;BMP280;56967;43.538;-5.646;2023-01-23T06:28:16;103234.84;;;5.27
69704;BMP280;56967;43.538;-5.646;2023-01-23T06:30:41;103181.50;;;5.20
69704;BMP280;56967;43.538;-5.646;2023-01-23T06:33:07;103123.25;;;5.43
69704;BMP280;56967;43.538;-5.646;2023-01-23T06:35:32;102988.34;;;5.45
69704;BMP280;56967;43.538;-5.646;2023-01-23T06:37:58;102851.06;;;5.66
69704;BMP280;56967;43.538;-5.646;2023-01-23T06:40:23;102743.66;;;5.82
69704;BMP280;56967;43.538;-5.646;2023-01-23T06:42:53;102621.66;;;5.95
69704;BMP280;56967;43.538;-5.646;2023-01-23T06:45:19;102483.00;;;5.79
69704;BMP280;56967;43.538;-5.646;2023-01-23T06:47:45;102469.59;;;5.93
69704;BMP280;56967;43.538;-5.646;2023-01-23T06:50:10;102409.84;;;5.81
69704;BMP280;56967;43.538;-5.646;2023-01-23T06:52:36;102415.31;;;5.78
69704;BMP280;56967;43.538;-5.646;2023-01-23T06:55:01;102441.66;;;5.75
69704;BMP280;56967;43.538;-5.646;2023-01-23T06:57:27;102464.63;;;5.81
69704;BMP280;56967;43.538;-5.646;2023-01-23T06:59:52;102419.38;;;5.51
69704;BMP280;56967;43.538;-5.646;2023-01-23T07:02:18;102450.22;;;5.46
69704;BMP280;56967;43.538;-5.646;2023-01-23T07:04:43;102478.34;;;5.12
69704;BMP280;56967;43.538;-5.646;2023-01-23T07:07:09;102577.72;;;5.08
69704;BMP280;56967;43.538;-5.646;2023-01-23T07:09:34;102666.66;;;5.14
69704;BMP280;56967;43.538;-5.646;2023-01-23T07:12:00;102691.81;;;5.04
69704;BMP280;56967;43.538;-5.646;2023-01-23T07:14:26;102725.59;;;4.72
69704;BMP280;56967;43.538;-5.646;2023-01-23T07:16:53;102808.84;;;4.74
69704;BMP280;56967;43.538;-5.646;2023-01-23T07:19:19;102876.81;;;4.71
69704;BMP280;56967;43.538;-5.646;2023-01-23T07:21:47;102955.63;;;4.73
69704;BMP280;56967;43.538;-5.646;2023-01-23T07:24:13;102990.75;;;4.33
69704;BMP280;56967;43.538;-5.646;2023-01-23T07:26:38;103077.84;;;4.40
69704;BMP280;56967;43.538;-5.646;2023-01-23T07:29:05;103122.97;;;4.40
69704;BMP280;56967;43.538;-5.646;2023-01-23T07:31:33;103147.69;;;4.35
69704;BMP280;56967;43.538;-5.646;2023-01-23T07:33:59;103208.16;;;4.38
69704;BMP280;56967;43.538;-5.646;2023-01-23T07:36:27;103254.03;;;4.53
69704;BMP280;56967;43.538;-5.646;2023-01-23T07:38:52;103265.75;;;4.46
69704;BMP280;56967;43.538;-5.646;2023-01-23T07:41:18;103292.84;;;4.56
69704;BMP280;56967;43.538;-5.646;2023-01-23T07:43:43;103312.66;;;4.72
69704;BMP280;56967;43.538;-5.646;2023-01-23T07:46:09;103297.50;;;4.77
69704;BMP280;56967;43.538;-5.646;2023-01-23T07:48:37;103276.88;;;4.74
69704;BMP280;56967;43.538;-5.646;2023-01-23T07:51:03;103259.59;;;4.85
69704;BMP280;56967;43.538;-5.646;2023-01-23T07:53:30;103195.81;;;4.78
69704;BMP280;56967;43.538;-5.646;2023-01-23T07:55:55;103151.94;;;4.85
69704;BMP280;56967;43.538;-5.646;2023-01-23T07:58:21;103141.78;;;4.93
69704;BMP280;56967;43.538;-5.646;2023-01-23T08:00:46;103136.63;;;5.04
69704;BMP280;56967;43.538;-5.646;2023-01-23T08:03:12;103085.47;;;5.03
69704;BMP280;56967;43.538;-5.646;2023-01-23T08:05:38;103022.06;;;5.13
69704;BMP280;56967;43.538;-5.646;2023-01-23T08:08:04;102954.22;;;5.26
69704;BMP280;56967;43.538;-5.646;2023-01-23T08:10:29;102921.28;;;5.36
69704;BMP280;56967;43.538;-5.646;2023-01-23T08:12:55;102854.06;;;5.51
69704;BMP280;56967;43.538;-5.646;2023-01-23T08:15:20;102777.31;;;5.64
69704;BMP280;56967;43.538;-5.646;2023-01-23T08:17:46;102686.53;;;5.79
69704;BMP280;56967;43.538;-5.646;2023-01-23T08:20:11;102580.25;;;5.91
69704;BMP280;56967;43.538;-5.646;2023-01-23T08:22:38;102513.00;;;5.94
69704;BMP280;56967;43.538;-5.646;2023-01-23T08:25:07;102416.69;;;5.72
69704;BMP280;56967;43.538;-5.646;2023-01-23T08:27:34;102392.53;;;5.80
69704;BMP280;56967;43.538;-5.646;2023-01-23T08:29:59;102396.91;;;5.69
69704;BMP280;56967;43.538;-5.646;2023-01-23T08:32:25;102449.13;;;5.89
69704;BMP280;56967;43.538;-5.646;2023-01-23T08:34:50;102441.44;;;5.97
69704;BMP280;56967;43.538;-5.646;2023-01-23T08:37:16;102416.88;;;5.99
69704;BMP280;56967;43.538;-5.646;2023-01-23T08:39:44;102413.56;;;6.07
69704;BMP280;56967;43.538;-5.646;2023-01-23T08:42:10;102395.44;;;6.25
69704;BMP280;56967;43.538;-5.646;2023-01-23T08:44:36;102401.31;;;6.46
69704;BMP280;56967;43.538;-5.646;2023-01-23T08:47:02;102363.91;;;6.55
69704;BMP280;56967;43.538;-5.646;2023-01-23T08:49:27;102235.16;;;6.45
69704;BMP280;56967;43.538;-5.646;2023-01-23T08:51:53;102144.94;;;6.50
69704;BMP280;56967;43.538;-5.646;2023-01-23T08:54:18;102114.69;;;6.75
69704;BMP280;56967;43.538;-5.646;2023-01-23T08:56:44;102084.38;;;7.00
69704;BMP280;56967;43.538;-5.646;2023-01-23T08:59:10;101977.97;;;6.92
69704;BMP280;56967;43.538;-5.646;2023-01-23T09:01:35;101863.53;;;7.04
69704;BMP280;56967;43.538;-5.646;2023-01-23T09:04:01;101835.97;;;7.17
69704;BMP280;56967;43.538;-5.646;2023-01-23T09:06:26;101749.50;;;7.03
69704;BMP280;56967;43.538;-5.646;2023-01-23T09:08:52;101680.75;;;7.02
69704;BMP280;56967;43.538;-5.646;2023-01-23T09:11:18;101632.19;;;6.84
69704;BMP280;56967;43.538;-5.646;2023-01-23T09:13:45;101640.31;;;6.64
69704;BMP280;56967;43.538;-5.646;2023-01-23T09:16:11;101687.94;;;6.50
69704;BMP280;56967;43.538;-5.646;2023-01-23T09:18:37;101792.25;;;6.86
69704;BMP280;56967;43.538;-5.646;2023-01-23T09:21:10;101817.06;;;7.32
69704;BMP280;56967;43.538;-5.646;2023-01-23T09:23:37;101687.75;;;7.42
69704;BMP280;56967;43.538;-5.646;2023-01-23T09:26:04;101551.78;;;7.50
69704;BMP280;56967;43.538;-5.646;2023-01-23T09:28:29;101401.94;;;7.34
69704;BMP280;56967;43.538;-5.646;2023-01-23T09:30:55;101308.81;;;7.41
69704;BMP280;56967;43.538;-5.646;2023-01-23T09:33:21;101293.31;;;7.54
69704;BMP280;56967;43.538;-5.646;2023-01-23T09:35:51;101343.94;;;7.84
69704;BMP280;56967;43.538;-5.646;2023-01-23T09:38:17;101310.84;;;7.91
69704;BMP280;56967;43.538;-5.646;2023-01-23T09:40:52;101273.97;;;8.00
69704;BMP280;56967;43.538;-5.646;2023-01-23T09:48:42;101045.75;;;8.47
69704;BMP280;56967;43.538;-5.646;2023-01-23T09:51:22;100952.25;;;8.75
69704;BMP280;56967;43.538;-5.646;2023-01-23T09:53:51;100879.75;;;8.82
69704;BMP280;56967;43.538;-5.646;2023-01-23T09:56:41;100789.88;;;8.95
69704;BMP280;56967;43.538;-5.646;2023-01-23T09:59:26;100707.22;;;8.93
69704;BMP280;56967;43.538;-5.646;2023-01-23T10:01:53;100709.19;;;8.84
69704;BMP280;56967;43.538;-5.646;2023-01-23T10:04:19;100706.78;;;8.76
69704;BMP280;56967;43.538;-5.646;2023-01-23T10:07:07;100724.38;;;9.02
69704;BMP280;56967;43.538;-5.646;2023-01-23T10:10:19;100657.00;;;9.09
69704;BMP280;56967;43.538;-5.646;2023-01-23T10:13:15;100522.38;;;8.97
69704;BMP280;56967;43.538;-5.646;2023-01-23T10:19:07;100480.31;;;9.29
69704;BMP280;56967;43.538;-5.646;2023-01-23T10:27:04;100272.94;;;10.05
69704;BMP280;56967;43.538;-5.646;2023-01-23T10:29:38;100227.66;;;10.28
69704;BMP280;56967;43.538;-5.646;2023-01-23T10:32:20;100200.06;;;10.48
69704;BMP280;56967;43.538;-5.646;2023-01-23T10:34:47;100194.63;;;10.91
69704;BMP280;56967;43.538;-5.646;2023-01-23T10:39:53;100175.22;;;10.92
69704;BMP280;56967;43.538;-5.646;2023-01-23T10:42:21;100352.09;;;10.63
69704;BMP280;56967;43.538;-5.646;2023-01-23T10:44:48;100448.81;;;10.73
69704;BMP280;56967;43.538;-5.646;2023-01-23T10:47:31;100963.00;;;10.67
69704;BMP280;56967;43.538;-5.646;2023-01-23T10:49:58;101234.75;;;10.60
69704;BMP280;56967;43.538;-5.646;2023-01-23T10:52:34;101380.91;;;10.54
69704;BMP280;56967;43.538;-5.646;2023-01-23T10:54:59;101756.09;;;10.45
69704;BMP280;56967;43.538;-5.646;2023-01-23T10:57:27;102102.84;;;10.47
69704;BMP280;56967;43.538;-5.646;2023-01-23T10:59:57;102823.78;;;10.33
69704;BMP280;56967;43.538;-5.646;2023-01-23T11:02:37;102826.28;;;10.34
69704;BMP280;56967;43.538;-5.646;2023-01-23T11:05:32;102746.75;;;10.40
69704;BMP280;56967;43.538;-5.646;2023-01-23T11:07:59;102252.75;;;10.70
69704;BMP280;56967;43.538;-5.646;2023-01-23T11:10:24;102165.53;;;10.81
69704;BMP280;56967;43.538;-5.646;2023-01-23T11:12:52;101452.53;;;10.97
69704;BMP280;56967;43.538;-5.646;2023-01-23T11:15:31;102543.47;;;11.43
69704;BMP280;56967;43.538;-5.646;2023-01-23T11:17:58;102929.13;;;11.81
69704;BMP280;56967;43.538;-5.646;2023-01-23T11:20:37;102956.81;;;12.26
69704;BMP280;56967;43.538;-5.646;2023-01-23T11:25:44;102973.06;;;12.45
69704;BMP280;56967;43.538;-5.646;2023-01-23T11:28:31;102986.75;;;13.04
69704;BMP280;56967;43.538;-5.646;2023-01-23T11:31:15;102996.53;;;14.90
69704;BMP280;56967;43.538;-5.646;2023-01-23T11:41:56;103030.72;;;17.41
69704;BMP280;56967;43.538;-5.646;2023-01-23T11:44:22;103025.72;;;16.98
69704;BMP280;56967;43.538;-5.646;2023-01-23T11:47:13;103022.91;;;16.59
69704;BMP280;56967;43.538;-5.646;2023-01-23T11:52:29;103015.09;;;16.98
69704;BMP280;56967;43.538;-5.646;2023-01-23T12:01:18;102984.22;;;14.53
69704;BMP280;56967;43.538;-5.646;2023-01-23T12:15:17;102974.50;;;13.64
69704;BMP280;56967;43.538;-5.646;2023-01-23T12:17:25;102970.63;;;13.21
69704;BMP280;56967;43.538;-5.646;2023-01-23T12:23:07;102964.72;;;13.19
69704;BMP280;56967;43.538;-5.646;2023-01-23T12:25:40;102964.69;;;12.89
69704;BMP280;56967;43.538;-5.646;2023-01-23T12:28:59;102955.53;;;12.68
69704;BMP280;56967;43.538;-5.646;2023-01-23T12:41:39;102940.84;;;12.74
69704;BMP280;56967;43.538;-5.646;2023-01-23T12:44:32;102941.72;;;12.97
69704;BMP280;56967;43.538;-5.646;2023-01-23T12:47:17;102940.66;;;13.37
69704;BMP280;56967;43.538;-5.646;2023-01-23T12:49:57;102932.03;;;13.20
69704;BMP280;56967;43.538;-5.646;2023-01-23T12:52:32;102940.84;;;13.35
69704;BMP280;56967;43.538;-5.646;2023-01-23T12:55:03;102938.53;;;13.40
69704;BMP280;56967;43.538;-5.646;2023-01-23T12:57:31;102934.69;;;13.20
69704;BMP280;56967;43.538;-5.646;2023-01-23T13:00:07;102922.50;;;13.34
69704;BMP280;56967;43.538;-5.646;2023-01-23T13:02:46;102920.44;;;13.89
69704;BMP280;56967;43.538;-5.646;2023-01-23T13:13:35;102914.38;;;13.43
69704;BMP280;56967;43.538;-5.646;2023-01-23T13:16:10;102906.38;;;13.29
69704;BMP280;56967;43.538;-5.646;2023-01-23T13:18:37;102904.66;;;12.82
69704;BMP280;56967;43.538;-5.646;2023-01-23T13:21:21;102893.91;;;12.61
69704;BMP280;56967;43.538;-5.646;2023-01-23T13:27:34;102890.38;;;12.69
69704;BMP280;56967;43.538;-5.646;2023-01-23T13:30:00;102882.78;;;12.74
69704;BMP280;56967;43.538;-5.646;2023-01-23T13:32:29;102877.56;;;12.89
69704;BMP280;56967;43.538;-5.646;2023-01-23T13:34:55;102877.13;;;12.85
69704;BMP280;56967;43.538;-5.646;2023-01-23T13:42:35;102872.94;;;12.91
69704;BMP280;56967;43.538;-5.646;2023-01-23T13:45:21;102862.41;;;13.13
69704;BMP280;56967;43.538;-5.646;2023-01-23T13:51:08;102864.84;;;12.92
69704;BMP280;56967;43.538;-5.646;2023-01-23T13:53:42;102858.13;;;11.96
69704;BMP280;56967;43.538;-5.646;2023-01-23T13:56:27;102866.25;;;11.62
69704;BMP280;56967;43.538;-5.646;2023-01-23T13:59:10;102870.34;;;11.32
69704;BMP280;56967;43.538;-5.646;2023-01-23T14:01:53;102865.38;;;11.94
69704;BMP280;56967;43.538;-5.646;2023-01-23T14:04:42;102863.44;;;11.39
69704;BMP280;56967;43.538;-5.646;2023-01-23T14:07:31;102861.78;;;11.38
69704;BMP280;56967;43.538;-5.646;2023-01-23T14:10:25;102872.97;;;11.32
69704;BMP280;56967;43.538;-5.646;2023-01-23T14:13:14;102868.84;;;11.78
69704;BMP280;56967;43.538;-5.646;2023-01-23T14:15:47;102867.38;;;11.59
69704;BMP280;56967;43.538;-5.646;2023-01-23T14:18:51;102867.06;;;11.62
69704;BMP280;56967;43.538;-5.646;2023-01-23T14:21:26;102871.19;;;11.89
69704;BMP280;56967;43.538;-5.646;2023-01-23T14:23:53;102870.69;;;11.78
69704;BMP280;56967;43.538;-5.646;2023-01-23T14:26:24;102880.88;;;11.56
69704;BMP280;56967;43.538;-5.646;2023-01-23T14:29:02;102871.00;;;11.34
69704;BMP280;56967;43.538;-5.646;2023-01-23T14:31:31;102866.91;;;11.48
69704;BMP280;56967;43.538;-5.646;2023-01-23T14:34:00;102864.91;;;11.42
69704;BMP280;56967;43.538;-5.646;2023-01-23T14:36:27;102876.75;;;11.54
69704;BMP280;56967;43.538;-5.646;2023-01-23T14:38:54;102875.59;;;11.48
69704;BMP280;56967;43.538;-5.646;2023-01-23T14:41:24;102877.28;;;11.57
69704;BMP280;56967;43.538;-5.646;2023-01-23T14:43:52;102872.13;;;11.16
69704;BMP280;56967;43.538;-5.646;2023-01-23T14:46:19;102873.44;;;11.28
69704;BMP280;56967;43.538;-5.646;2023-01-23T14:48:51;102871.97;;;11.49
69704;BMP280;56967;43.538;-5.646;2023-01-23T14:51:24;102867.88;;;11.79
69704;BMP280;56967;43.538;-5.646;2023-01-23T14:53:57;102868.53;;;11.57
69704;BMP280;56967;43.538;-5.646;2023-01-23T14:56:36;102871.00;;;11.34
69704;BMP280;56967;43.538;-5.646;2023-01-23T14:59:06;102884.94;;;11.19
69704;BMP280;56967;43.538;-5.646;2023-01-23T15:01:32;102867.34;;;11.35
69704;BMP280;56967;43.538;-5.646;2023-01-23T15:04:06;102870.34;;;11.89
69704;BMP280;56967;43.538;-5.646;2023-01-23T15:06:50;102873.66;;;11.99
69704;BMP280;56967;43.538;-5.646;2023-01-23T15:09:17;102869.97;;;12.16
69704;BMP280;56967;43.538;-5.646;2023-01-23T15:11:43;102870.47;;;12.11
69704;BMP280;56967;43.538;-5.646;2023-01-23T15:14:28;102874.00;;;12.43
69704;BMP280;56967;43.538;-5.646;2023-01-23T15:17:02;102874.91;;;12.11
69704;BMP280;56967;43.538;-5.646;2023-01-23T15:19:29;102873.63;;;11.91
69704;BMP280;56967;43.538;-5.646;2023-01-23T15:22:28;102870.50;;;11.79
69704;BMP280;56967;43.538;-5.646;2023-01-23T15:24:54;102878.91;;;11.58
69704;BMP280;56967;43.538;-5.646;2023-01-23T15:27:24;102870.84;;;11.60
69704;BMP280;56967;43.538;-5.646;2023-01-23T15:29:51;102882.53;;;11.57
69704;BMP280;56967;43.538;-5.646;2023-01-23T15:32:24;102893.66;;;11.27
69704;BMP280;56967;43.538;-5.646;2023-01-23T15:34:54;102878.38;;;11.23
69704;BMP280;56967;43.538;-5.646;2023-01-23T15:37:24;102868.31;;;11.26
69704;BMP280;56967;43.538;-5.646;2023-01-23T15:39:58;102873.44;;;11.20